Stations météo

réclame
Mon MeteoGroup
Uccle, Belgique (6447): Température de l'air & dewpoint: 20.01.2020 17:00:00 - 26.01.2020 17:00:00 (CET)Uccle, Belgique (6447): Vitesse du vent & gusts: 20.01.2020 17:00:00 - 26.01.2020 17:00:00 (CET)Uccle, Belgique (6447): Direction du vent: 20.01.2020 17:00:00 - 26.01.2020 17:00:00 (CET)Uccle, Belgique (6447): reduced air pressure: 20.01.2020 17:00:00 - 26.01.2020 17:00:00 (CET)Uccle, Belgique (6447): Ensoleillement: 20.01.2020 17:00:00 - 26.01.2020 17:00:00 (CET)Uccle, Belgique (6447): Quantités de précipitations: 20.01.2020 17:00:00 - 26.01.2020 17:00:00 (CET)
Date & Time tt [°C] td [°C] ff [km/h] ff [knt] fx [km/h] fx [knt] dd ppp [hPa] sd [min] rr [mm]
26.01.2020 17:00:00 - - - - - - - - - -
26.01.2020 16:00:00 9,6 5,8 18 10 40 22 SSW 1013,4 53 0,0
26.01.2020 15:00:00 10,4 5,9 18 10 37 20 S 1013,8 57 0,0
26.01.2020 14:00:00 10,4 5,9 14 8 25 14 S 1014,0 57 0,0
26.01.2020 13:00:00 9,1 5,8 14 8 26 14 S 1014,7 18 0,0
26.01.2020 12:00:00 8,9 5,6 13 7 21 11 SSW 1015,4 60 0,0
26.01.2020 11:00:00 6,4 4,3 12 6 20 11 S 1015,5 60 0,0
26.01.2020 10:00:00 5,2 3,8 10 6 21 12 S 1015,8 47 0,0
26.01.2020 09:00:00 4,2 3,0 14 8 21 11 S 1015,6 0 0,0
26.01.2020 08:00:00 4,6 3,4 11 6 19 10 S 1015,5 0 0,0
26.01.2020 07:00:00 5,0 3,8 11 6 22 12 S 1015,6 0 0,0
26.01.2020 06:00:00 4,8 4,0 10 5 18 10 S 1015,6 0 0,0
26.01.2020 05:00:00 4,6 4,0 11 6 23 13 SSE 1015,9 0 0,0
26.01.2020 04:00:00 3,5 3,2 10 6 18 10 SSE 1016,2 0 0,0
26.01.2020 03:00:00 2,5 2,1 8 4 14 8 SSE 1016,6 0 0,0
26.01.2020 02:00:00 2,1 1,8 7 4 13 7 ESE 1017,2 0 0,0
26.01.2020 01:00:00 1,1 0,8 7 4 11 6 ESE 1017,9 0 0,0
26.01.2020 00:00:00 0,8 0,5 9 5 13 7 E 1018,1 0 0,0
25.01.2020 23:00:00 1,3 1,0 6 3 12 6 ESE 1018,7 0 0,0
25.01.2020 22:00:00 2,0 1,6 8 4 14 7 E 1019,0 0 0,0
25.01.2020 21:00:00 2,3 2,0 6 4 10 5 ESE 1019,5 0 0,0
25.01.2020 20:00:00 2,7 2,3 6 3 14 7 E 1019,5 0 0,0
25.01.2020 19:00:00 2,8 2,5 7 4 16 9 ESE 1019,7 0 0,0
25.01.2020 18:00:00 2,8 2,4 10 5 14 8 ESE 1019,6 0 0,0
25.01.2020 17:00:00 3,1 2,7 4 2 8 5 ESE 1019,4 0 0,0
25.01.2020 16:00:00 3,1 2,7 6 4 10 5 SE 1020,1 0 0,0
25.01.2020 15:00:00 2,8 2,4 6 3 11 6 SE 1020,5 0 0,0
25.01.2020 14:00:00 2,4 2,0 7 4 13 7 S 1021,0 0 0,0
25.01.2020 13:00:00 2,1 1,7 7 4 13 7 SSW 1021,7 0 0,0
25.01.2020 12:00:00 1,7 1,3 6 3 12 7 SSW 1022,3 0 0,0
25.01.2020 11:00:00 1,3 0,9 8 4 13 7 S 1022,3 0 0,0
25.01.2020 10:00:00 0,9 0,5 8 4 12 6 SSW 1022,0 0 0,0
25.01.2020 09:00:00 0,7 0,3 4 2 9 5 S 1021,8 0 0,0
25.01.2020 08:00:00 0,5 0,0 4 2 10 5 SSW 1021,5 0 0,0
25.01.2020 07:00:00 0,3 -0,2 4 2 12 7 S 1021,5 0 0,0
25.01.2020 06:00:00 0,2 -0,3 9 5 12 7 SSW 1021,6 0 0,0
25.01.2020 05:00:00 0,2 -0,5 5 3 13 7 SSW 1021,6 0 0,0
25.01.2020 04:00:00 0,1 -0,9 7 4 14 8 S 1021,9 0 0,0
25.01.2020 03:00:00 -0,1 -1,2 5 3 12 6 S 1022,2 0 0,0
25.01.2020 02:00:00 -0,2 -1,4 5 3 11 6 SSW 1022,6 0 0,0
25.01.2020 01:00:00 -0,4 -1,6 4 2 14 7 SW 1023,0 0 0,0
25.01.2020 00:00:00 -0,4 -1,6 9 5 14 7 SSE 1023,0 0 0,0
24.01.2020 23:00:00 0,0 -1,3 6 3 11 6 SW 1023,4 0 0,0
24.01.2020 22:00:00 0,0 -1,2 4 2 11 6 SSE 1023,4 0 0,0
24.01.2020 21:00:00 0,2 -1,1 4 2 9 5 SSE 1023,5 0 0,0
24.01.2020 20:00:00 0,3 -1,0 6 3 16 9 SSE 1023,0 0 0,0
24.01.2020 19:00:00 0,5 -0,6 7 4 15 8 SSW 1022,7 0 0,0
24.01.2020 18:00:00 0,7 -0,2 10 5 14 8 S 1022,4 0 0,0
24.01.2020 17:00:00 0,7 0,0 6 3 13 7 S 1022,5 0 0,0
24.01.2020 16:00:00 0,7 0,0 5 3 10 5 WSW 1022,9 0 0,0
24.01.2020 15:00:00 0,8 0,2 4 2 11 6 S 1023,0 0 0,0
24.01.2020 14:00:00 0,7 0,1 4 2 10 5 SW 1023,5 0 0,0
24.01.2020 13:00:00 0,7 0,1 4 2 12 6 SW 1024,3 0 0,0
24.01.2020 12:00:00 0,7 0,2 5 3 10 5 S 1024,3 0 0,0
24.01.2020 11:00:00 0,9 0,4 5 3 12 6 SW 1024,1 0 0,0
24.01.2020 10:00:00 0,9 0,4 6 3 14 7 SW 1023,9 0 0,0
24.01.2020 09:00:00 1,2 0,7 5 3 13 7 WSW 1023,7 0 0,0
24.01.2020 08:00:00 1,2 0,7 9 5 15 8 S 1023,6 0 0,0
24.01.2020 07:00:00 1,3 0,8 7 4 12 7 SSE 1023,7 0 0,0
24.01.2020 06:00:00 1,2 0,8 5 3 11 6 SW 1023,7 0 0,0
24.01.2020 05:00:00 1,4 1,0 4 2 9 5 WNW 1024,2 0 0,0
24.01.2020 04:00:00 1,5 1,0 4 2 12 7 WSW 1024,2 0 0,0
24.01.2020 03:00:00 1,6 1,2 6 3 14 8 SSW 1025,0 0 0,0
24.01.2020 02:00:00 1,4 1,0 4 2 13 7 SSW 1025,3 0 0,0
24.01.2020 01:00:00 1,2 0,8 7 4 13 7 SSE 1026,0 0 0,0
24.01.2020 00:00:00 1,2 0,7 6 3 12 6 E 1026,1 0 0,0
23.01.2020 23:00:00 1,2 0,7 6 3 11 6 E 1026,2 0 0,0
23.01.2020 22:00:00 1,2 0,7 5 3 11 6 E 1026,4 0 0,0
23.01.2020 21:00:00 1,2 0,7 7 4 16 9 E 1026,8 0 0,0
23.01.2020 20:00:00 1,6 1,0 8 5 15 8 E 1027,0 0 0,0
23.01.2020 19:00:00 1,9 1,2 7 4 18 10 ENE 1027,1 0 0,0
23.01.2020 18:00:00 2,3 1,4 6 4 21 11 ENE 1027,6 0 0,0
23.01.2020 17:00:00 2,5 1,5 11 6 20 11 ENE 1028,0 0 0,0
23.01.2020 16:00:00 2,5 1,4 12 6 21 11 ENE 1028,4 0 0,0
23.01.2020 15:00:00 2,7 1,4 10 5 21 11 ENE 1029,3 0 0,0
23.01.2020 14:00:00 3,2 1,4 11 6 25 14 E 1030,1 0 0,0
23.01.2020 13:00:00 3,5 1,4 11 6 28 15 ENE 1031,0 0 0,0
23.01.2020 12:00:00 3,1 1,6 9 5 23 13 ENE 1031,5 0 0,0
23.01.2020 11:00:00 2,4 1,5 9 5 19 10 E 1032,0 0 0,0
23.01.2020 10:00:00 1,8 1,1 8 5 20 11 ENE 1032,3 0 0,0
23.01.2020 09:00:00 1,8 1,2 11 6 21 12 E 1032,7 0 0,0
23.01.2020 08:00:00 2,0 1,5 4 2 18 10 E 1032,9 0 0,0
23.01.2020 07:00:00 2,6 2,1 7 4 15 8 E 1032,8 0 0,0
23.01.2020 06:00:00 2,7 2,2 9 5 17 9 ENE 1033,0 0 0,0
23.01.2020 05:00:00 2,9 2,4 8 4 17 9 ENE 1033,5 0 0,0
23.01.2020 04:00:00 3,2 2,6 8 5 16 9 ENE 1034,0 0 0,0
23.01.2020 03:00:00 3,6 3,0 7 4 14 7 ENE 1034,6 0 0,0
23.01.2020 02:00:00 3,5 2,9 4 2 9 5 E 1035,3 0 0,0
23.01.2020 01:00:00 2,9 2,2 4 2 18 10 E 1035,6 0 0,0
23.01.2020 00:00:00 3,7 3,0 9 5 16 9 ENE 1036,0 0 0,0
22.01.2020 23:00:00 3,8 3,0 7 4 16 9 ENE 1036,0 0 0,0
22.01.2020 22:00:00 3,8 2,9 10 5 14 8 NE 1036,1 0 0,0
22.01.2020 21:00:00 3,7 2,6 5 3 11 6 ENE 1036,3 0 0,0
22.01.2020 20:00:00 3,8 2,5 8 4 14 8 NNE 1036,1 0 0,0
22.01.2020 19:00:00 4,0 2,2 4 2 12 6 NE 1035,8 0 0,0
22.01.2020 18:00:00 4,0 2,0 4 2 7 4 ENE 1035,7 0 0,0
22.01.2020 17:00:00 4,0 1,8 4 2 11 6 E 1035,6 1 0,0
22.01.2020 16:00:00 4,0 1,9 5 3 12 6 E 1035,8 5 0,0
22.01.2020 15:00:00 3,6 1,7 5 3 10 5 ESE 1035,9 0 0,0
22.01.2020 14:00:00 3,1 1,4 6 3 9 5 ESE 1036,2 0 0,0
22.01.2020 13:00:00 1,6 0,9 4 2 8 4 ESE 1036,8 0 0,0
22.01.2020 12:00:00 1,5 1,1 4 2 11 6 ESE 1037,3 16 0,0
22.01.2020 11:00:00 0,4 0,0 4 2 8 4 E 1037,5 0 0,0
22.01.2020 10:00:00 -0,5 -0,7 4 2 7 4 NE 1037,6 0 0,0
22.01.2020 09:00:00 -1,0 -1,3 4 2 8 5 WNW 1037,2 0 0,0
22.01.2020 08:00:00 -1,2 -1,5 5 3 9 5 WNW 1036,8 0 0,0
22.01.2020 07:00:00 -1,1 -1,4 4 2 5 3 W 1036,8 0 0,0
22.01.2020 06:00:00 -1,2 -1,5 4 2 6 3 WSW 1037,3 0 0,0
22.01.2020 05:00:00 -1,0 -1,3 4 2 6 3 WNW 1037,4 0 0,0
22.01.2020 04:00:00 -1,0 -1,3 4 2 8 4 ESE 1037,7 0 0,0
22.01.2020 03:00:00 -1,3 -1,6 0 0 5 3 N 1038,3 0 0,0
22.01.2020 02:00:00 -2,0 -2,3 6 3 15 8 NNW 1038,5 0 0,0
22.01.2020 01:00:00 -2,3 -2,6 7 4 11 6 NNW 1039,0 0 0,0
22.01.2020 00:00:00 -2,0 -2,3 4 2 8 5 W 1038,7 0 0,0
21.01.2020 23:00:00 -1,3 -1,7 4 2 9 5 W 1039,2 0 0,0
21.01.2020 22:00:00 -1,3 -1,8 4 2 9 5 NW 1039,4 0 0,0
21.01.2020 21:00:00 -2,0 -2,6 4 2 6 3 NNW 1039,7 0 0,0
21.01.2020 20:00:00 -1,1 -1,9 4 2 9 5 SE 1039,9 0 0,0
21.01.2020 19:00:00 -0,3 -1,7 4 2 6 3 W 1040,1 0 0,0
21.01.2020 18:00:00 0,9 -1,6 4 2 6 3 W 1040,0 6 0,0
21.01.2020 17:00:00 3,0 -0,9 4 2 8 5 WNW 1040,2 59 0,0
21.01.2020 16:00:00 3,8 -1,5 5 3 10 5 W 1040,4 60 0,0
21.01.2020 15:00:00 4,0 -0,8 6 4 11 6 WNW 1040,8 60 0,0
21.01.2020 14:00:00 4,5 0,4 6 3 10 5 W 1041,2 60 0,0
21.01.2020 13:00:00 3,7 0,7 4 2 8 5 W 1042,1 60 0,0
21.01.2020 12:00:00 3,1 0,9 6 3 9 5 WNW 1042,7 60 0,0
21.01.2020 11:00:00 1,8 1,0 4 2 10 5 SE 1042,6 60 0,1
21.01.2020 10:00:00 -0,9 -1,3 4 2 9 5 SSE 1042,5 49 0,0
21.01.2020 09:00:00 -1,6 -2,0 8 4 11 6 SSE 1042,4 0 0,0
21.01.2020 08:00:00 -2,4 -2,8 6 3 10 5 SE 1042,5 0 0,0
21.01.2020 07:00:00 -2,3 -2,7 7 4 9 5 SE 1042,6 0 0,0
21.01.2020 06:00:00 -1,6 -2,0 6 3 8 4 ESE 1042,5 0 0,0
21.01.2020 05:00:00 -1,2 -1,6 5 3 8 4 N 1042,9 0 0,0
21.01.2020 04:00:00 -0,6 -1,2 6 3 7 4 E 1043,3 0 0,0
21.01.2020 03:00:00 -0,1 -0,7 4 2 6 3 ESE 1043,9 0 0,0
21.01.2020 02:00:00 1,0 0,4 0 0 14 8 N 1044,2 0 0,0
21.01.2020 01:00:00 2,2 1,7 11 6 18 10 ESE 1044,6 0 0,0
21.01.2020 00:00:00 2,3 1,7 9 5 15 8 ESE 1045,1 0 0,0
20.01.2020 23:00:00 2,4 1,7 9 5 13 7 E 1045,1 0 0,0
20.01.2020 22:00:00 2,7 1,8 8 4 10 6 NE 1045,1 0 0,0
20.01.2020 21:00:00 3,6 2,6 6 3 10 6 NE 1045,5 0 0,0
20.01.2020 20:00:00 4,3 3,2 6 3 9 5 E 1045,5 0 0,0
20.01.2020 19:00:00 4,3 3,3 4 2 9 5 N 1045,6 0 0,0
20.01.2020 18:00:00 4,3 3,2 4 2 10 6 WNW 1045,8 0 0,0
20.01.2020 17:00:00 4,8 3,5 0 0 6 3 N 1045,9 0 0,0

tt = Température de l'air
td = dewpoint
ff = Vitesse du vent
fx = gusts
dd = Direction du vent
ppp = reduced air pressure
sd = Ensoleillement
rr = Quantités de précipitations

stations d'obs. à proximité